sensor_id;sensor_type;location;lat;lon;timestamp;pressure;altitude;pressure_sealevel;temperature;humidity
30714;BME280;17465;47.934;33.430;2023-02-22T00:01:33;57383.38;;;-140.43;82.45
30714;BME280;17465;47.934;33.430;2023-02-22T00:04:05;57371.73;;;-140.43;81.72
30714;BME280;17465;47.934;33.430;2023-02-22T00:06:41;57367.50;;;-140.43;82.03
30714;BME280;17465;47.934;33.430;2023-02-22T00:09:09;57345.26;;;-140.43;82.18
30714;BME280;17465;47.934;33.430;2023-02-22T00:11:44;57353.73;;;-140.43;83.00
30714;BME280;17465;47.934;33.430;2023-02-22T00:14:22;57383.38;;;-140.43;83.29
30714;BME280;17465;47.934;33.430;2023-02-22T00:16:53;57378.09;;;-140.43;82.84
30714;BME280;17465;47.934;33.430;2023-02-22T00:19:24;57355.85;;;-140.43;83.19
30714;BME280;17465;47.934;33.430;2023-02-22T00:21:54;57367.50;;;-140.43;83.47
30714;BME280;17465;47.934;33.430;2023-02-22T00:24:24;57367.50;;;-140.43;83.47
30714;BME280;17465;47.934;33.430;2023-02-22T00:26:55;57351.61;;;-140.43;83.67
30714;BME280;17465;47.934;33.430;2023-02-22T00:29:26;57351.61;;;-140.43;83.67
30714;BME280;17465;47.934;33.430;2023-02-22T00:31:58;57353.73;;;-140.43;84.43
30714;BME280;17465;47.934;33.430;2023-02-22T00:34:30;57357.96;;;-140.43;84.67
30714;BME280;17465;47.934;33.430;2023-02-22T00:37:00;57375.97;;;-140.43;85.08
30714;BME280;17465;47.934;33.430;2023-02-22T00:39:30;57382.32;;;-140.43;85.56
30714;BME280;17465;47.934;33.430;2023-02-22T00:42:01;57382.32;;;-140.43;85.56
30714;BME280;17465;47.934;33.430;2023-02-22T00:44:32;57356.91;;;-140.43;85.48
30714;BME280;17465;47.934;33.430;2023-02-22T00:47:04;57368.55;;;-140.43;84.57
30714;BME280;17465;47.934;33.430;2023-02-22T00:49:35;57348.43;;;-140.43;84.65
30714;BME280;17465;47.934;33.430;2023-02-22T00:52:06;57367.50;;;-140.43;84.84
30714;BME280;17465;47.934;33.430;2023-02-22T00:54:36;57346.32;;;-140.43;84.53
30714;BME280;17465;47.934;33.430;2023-02-22T00:57:07;57348.43;;;-140.43;84.94
30714;BME280;17465;47.934;33.430;2023-02-22T00:59:38;57375.97;;;-140.43;84.88
30714;BME280;17465;47.934;33.430;2023-02-22T01:02:09;57375.97;;;-140.43;84.88
30714;BME280;17465;47.934;33.430;2023-02-22T01:04:43;57341.02;;;-140.43;85.66
30714;BME280;17465;47.934;33.430;2023-02-22T01:07:14;57360.08;;;-140.43;86.42
30714;BME280;17465;47.934;33.430;2023-02-22T01:09:44;57347.38;;;-140.43;86.48
30714;BME280;17465;47.934;33.430;2023-02-22T01:12:15;57355.85;;;-140.43;86.72
30714;BME280;17465;47.934;33.430;2023-02-22T01:14:46;57355.85;;;-140.43;86.72
30714;BME280;17465;47.934;33.430;2023-02-22T01:17:16;57328.31;;;-140.43;86.30
30714;BME280;17465;47.934;33.430;2023-02-22T01:19:47;57369.62;;;-140.43;85.30
30714;BME280;17465;47.934;33.430;2023-02-22T01:22:18;57361.14;;;-140.43;85.56
30714;BME280;17465;47.934;33.430;2023-02-22T01:24:50;57361.14;;;-140.43;85.56
30714;BME280;17465;47.934;33.430;2023-02-22T01:27:21;57362.20;;;-140.43;84.65
30714;BME280;17465;47.934;33.430;2023-02-22T01:29:51;57354.79;;;-140.43;84.28
30714;BME280;17465;47.934;33.430;2023-02-22T01:32:23;57361.14;;;-140.43;83.65
30714;BME280;17465;47.934;33.430;2023-02-22T01:34:54;57366.44;;;-140.43;83.78
30714;BME280;17465;47.934;33.430;2023-02-22T01:37:24;57390.80;;;-140.43;83.51
30714;BME280;17465;47.934;33.430;2023-02-22T01:39:59;57354.79;;;-140.43;82.26
30714;BME280;17465;47.934;33.430;2023-02-22T01:45:42;57349.49;;;-140.43;83.34
30714;BME280;17465;47.934;33.430;2023-02-22T01:48:29;57354.79;;;-140.43;82.74
30714;BME280;17465;47.934;33.430;2023-02-22T01:51:19;57354.79;;;-140.43;82.74
30714;BME280;17465;47.934;33.430;2023-02-22T01:54:14;57348.43;;;-140.43;82.29
30714;BME280;17465;47.934;33.430;2023-02-22T01:56:52;57365.38;;;-140.43;81.74
30714;BME280;17465;47.934;33.430;2023-02-22T01:59:22;57365.38;;;-140.43;81.74
30714;BME280;17465;47.934;33.430;2023-02-22T02:01:55;57344.20;;;-140.43;81.27
30714;BME280;17465;47.934;33.430;2023-02-22T02:04:26;57369.62;;;-140.43;80.16
30714;BME280;17465;47.934;33.430;2023-02-22T02:07:00;57369.62;;;-140.43;80.16
30714;BME280;17465;47.934;33.430;2023-02-22T02:09:37;57369.62;;;-140.43;81.25
30714;BME280;17465;47.934;33.430;2023-02-22T02:12:10;57356.91;;;-140.43;81.30
30714;BME280;17465;47.934;33.430;2023-02-22T02:14:42;57365.38;;;-140.43;81.43
30714;BME280;17465;47.934;33.430;2023-02-22T02:17:15;57365.38;;;-140.43;81.43
30714;BME280;17465;47.934;33.430;2023-02-22T02:22:54;57345.26;;;-140.43;81.13
30714;BME280;17465;47.934;33.430;2023-02-22T02:34:54;57355.85;;;-140.43;82.82
30714;BME280;17465;47.934;33.430;2023-02-22T02:40:25;57355.85;;;-140.43;83.44
30714;BME280;17465;47.934;33.430;2023-02-22T02:43:00;57363.26;;;-140.43;83.60
30714;BME280;17465;47.934;33.430;2023-02-22T02:46:09;57354.79;;;-140.43;83.78
30714;BME280;17465;47.934;33.430;2023-02-22T02:48:40;57354.79;;;-140.43;83.78
30714;BME280;17465;47.934;33.430;2023-02-22T02:51:10;57381.27;;;-140.43;85.04
30714;BME280;17465;47.934;33.430;2023-02-22T02:53:44;57339.96;;;-140.43;84.69
30714;BME280;17465;47.934;33.430;2023-02-22T02:56:18;57339.96;;;-140.43;84.69
30714;BME280;17465;47.934;33.430;2023-02-22T02:58:51;57357.96;;;-140.43;85.61
30714;BME280;17465;47.934;33.430;2023-02-22T03:10:41;57351.61;;;-140.43;85.29
30714;BME280;17465;47.934;33.430;2023-02-22T03:13:26;57341.02;;;-140.43;85.12
30714;BME280;17465;47.934;33.430;2023-02-22T03:16:01;57354.79;;;-140.43;84.22
30714;BME280;17465;47.934;33.430;2023-02-22T03:18:52;57367.50;;;-140.43;84.77
30714;BME280;17465;47.934;33.430;2023-02-22T03:21:33;57377.03;;;-140.43;84.37
30714;BME280;17465;47.934;33.430;2023-02-22T03:24:08;57341.02;;;-140.43;84.31
30714;BME280;17465;47.934;33.430;2023-02-22T03:26:42;57341.02;;;-140.43;84.31
30714;BME280;17465;47.934;33.430;2023-02-22T03:29:15;57362.20;;;-140.43;84.17
30714;BME280;17465;47.934;33.430;2023-02-22T03:31:55;57341.02;;;-140.43;84.93
30714;BME280;17465;47.934;33.430;2023-02-22T03:34:32;57347.38;;;-140.43;85.37
30714;BME280;17465;47.934;33.430;2023-02-22T03:37:06;57374.91;;;-140.43;85.87
30714;BME280;17465;47.934;33.430;2023-02-22T03:39:38;57374.91;;;-140.43;85.87
30714;BME280;17465;47.934;33.430;2023-02-22T03:42:16;57344.20;;;-140.43;86.60
30714;BME280;17465;47.934;33.430;2023-02-22T03:44:43;57354.79;;;-140.43;87.46
30714;BME280;17465;47.934;33.430;2023-02-22T03:47:21;57352.67;;;-140.43;87.31
30714;BME280;17465;47.934;33.430;2023-02-22T03:49:58;57348.43;;;-140.43;87.82
30714;BME280;17465;47.934;33.430;2023-02-22T03:52:28;57402.45;;;-140.43;87.91
30714;BME280;17465;47.934;33.430;2023-02-22T03:54:59;57384.44;;;-140.43;86.58
30714;BME280;17465;47.934;33.430;2023-02-22T03:57:36;57349.49;;;-140.43;86.34
30714;BME280;17465;47.934;33.430;2023-02-22T04:00:09;57348.43;;;-140.43;86.63
30714;BME280;17465;47.934;33.430;2023-02-22T04:02:40;57345.26;;;-140.43;86.01
30714;BME280;17465;47.934;33.430;2023-02-22T04:05:11;57345.26;;;-140.43;86.01
30714;BME280;17465;47.934;33.430;2023-02-22T04:07:42;57356.91;;;-140.43;86.45
30714;BME280;17465;47.934;33.430;2023-02-22T04:10:14;57356.91;;;-140.43;86.45
30714;BME280;17465;47.934;33.430;2023-02-22T04:12:44;57366.44;;;-140.43;86.50
30714;BME280;17465;47.934;33.430;2023-02-22T04:15:18;57373.85;;;-140.43;86.73
30714;BME280;17465;47.934;33.430;2023-02-22T04:17:48;57372.79;;;-140.43;86.25
30714;BME280;17465;47.934;33.430;2023-02-22T04:20:19;57361.14;;;-140.43;86.13
30714;BME280;17465;47.934;33.430;2023-02-22T04:22:53;57382.32;;;-140.43;86.42
30714;BME280;17465;47.934;33.430;2023-02-22T04:25:24;57382.32;;;-140.43;86.42
30714;BME280;17465;47.934;33.430;2023-02-22T04:27:55;57372.79;;;-140.43;85.97
30714;BME280;17465;47.934;33.430;2023-02-22T04:30:25;57375.97;;;-140.43;85.68
30714;BME280;17465;47.934;33.430;2023-02-22T04:32:56;57361.14;;;-140.43;85.99
30714;BME280;17465;47.934;33.430;2023-02-22T04:35:26;57361.14;;;-140.43;85.99
30714;BME280;17465;47.934;33.430;2023-02-22T04:37:57;57378.09;;;-140.43;85.82
30714;BME280;17465;47.934;33.430;2023-02-22T04:40:28;57377.03;;;-140.43;85.21
30714;BME280;17465;47.934;33.430;2023-02-22T04:43:01;57363.26;;;-140.43;85.68
30714;BME280;17465;47.934;33.430;2023-02-22T04:45:31;57363.26;;;-140.43;85.68
30714;BME280;17465;47.934;33.430;2023-02-22T04:48:02;57342.08;;;-140.43;85.07
30714;BME280;17465;47.934;33.430;2023-02-22T04:50:32;57392.91;;;-140.43;85.14
30714;BME280;17465;47.934;33.430;2023-02-22T04:53:03;57362.20;;;-140.43;85.18
30714;BME280;17465;47.934;33.430;2023-02-22T04:55:34;57361.14;;;-140.43;84.97
30714;BME280;17465;47.934;33.430;2023-02-22T04:58:04;57365.38;;;-140.43;84.38
30714;BME280;17465;47.934;33.430;2023-02-22T05:00:37;57373.85;;;-140.43;84.14
30714;BME280;17465;47.934;33.430;2023-02-22T05:03:10;57387.62;;;-140.43;83.70
30714;BME280;17465;47.934;33.430;2023-02-22T05:05:40;57363.26;;;-140.43;84.28
30714;BME280;17465;47.934;33.430;2023-02-22T05:08:10;57366.44;;;-140.43;84.52
30714;BME280;17465;47.934;33.430;2023-02-22T05:10:41;57363.26;;;-140.43;84.46
30714;BME280;17465;47.934;33.430;2023-02-22T05:13:12;57378.09;;;-140.43;84.15
30714;BME280;17465;47.934;33.430;2023-02-22T05:15:42;57378.09;;;-140.43;84.15
30714;BME280;17465;47.934;33.430;2023-02-22T05:18:14;57362.20;;;-140.43;83.71
30714;BME280;17465;47.934;33.430;2023-02-22T05:20:45;57356.91;;;-140.43;82.67
30714;BME280;17465;47.934;33.430;2023-02-22T05:23:19;57399.27;;;-140.43;82.82
30714;BME280;17465;47.934;33.430;2023-02-22T05:25:50;57371.73;;;-140.43;82.39
30714;BME280;17465;47.934;33.430;2023-02-22T05:28:21;57354.79;;;-140.43;82.24
30714;BME280;17465;47.934;33.430;2023-02-22T05:30:52;57350.55;;;-140.43;81.15
30714;BME280;17465;47.934;33.430;2023-02-22T05:33:22;57349.49;;;-140.43;81.17
30714;BME280;17465;47.934;33.430;2023-02-22T05:35:53;57372.79;;;-140.43;78.90
30714;BME280;17465;47.934;33.430;2023-02-22T05:38:23;57366.44;;;-140.43;79.41
30714;BME280;17465;47.934;33.430;2023-02-22T05:40:54;57342.08;;;-140.43;77.65
30714;BME280;17465;47.934;33.430;2023-02-22T05:43:25;57388.68;;;-140.43;78.64
30714;BME280;17465;47.934;33.430;2023-02-22T05:45:56;57368.55;;;-140.43;79.59
30714;BME280;17465;47.934;33.430;2023-02-22T05:48:27;57390.80;;;-140.43;79.54
30714;BME280;17465;47.934;33.430;2023-02-22T05:50:58;57350.55;;;-140.43;79.11
30714;BME280;17465;47.934;33.430;2023-02-22T05:53:28;57367.50;;;-140.43;79.59
30714;BME280;17465;47.934;33.430;2023-02-22T05:56:00;57366.44;;;-140.43;78.58
30714;BME280;17465;47.934;33.430;2023-02-22T05:58:31;57351.61;;;-140.43;78.40
30714;BME280;17465;47.934;33.430;2023-02-22T06:01:01;57373.85;;;-140.43;79.85
30714;BME280;17465;47.934;33.430;2023-02-22T06:03:33;57368.55;;;-140.43;79.63
30714;BME280;17465;47.934;33.430;2023-02-22T06:06:03;57366.44;;;-140.43;79.18
30714;BME280;17465;47.934;33.430;2023-02-22T06:08:34;57361.14;;;-140.43;78.67
30714;BME280;17465;47.934;33.430;2023-02-22T06:11:04;57360.08;;;-140.43;79.97
30714;BME280;17465;47.934;33.430;2023-02-22T06:13:36;57373.85;;;-140.43;79.66
30714;BME280;17465;47.934;33.430;2023-02-22T06:16:06;57373.85;;;-140.43;79.66
30714;BME280;17465;47.934;33.430;2023-02-22T06:18:37;57361.14;;;-140.43;78.51
30714;BME280;17465;47.934;33.430;2023-02-22T06:21:07;57374.91;;;-140.43;79.85
30714;BME280;17465;47.934;33.430;2023-02-22T06:23:38;57378.09;;;-140.43;79.30
30714;BME280;17465;47.934;33.430;2023-02-22T06:26:08;57382.32;;;-140.43;79.51
30714;BME280;17465;47.934;33.430;2023-02-22T06:28:51;57382.32;;;-140.43;79.51
30714;BME280;17465;47.934;33.430;2023-02-22T06:31:23;57360.08;;;-140.43;79.81
30714;BME280;17465;47.934;33.430;2023-02-22T06:33:58;57360.08;;;-140.43;79.81
30714;BME280;17465;47.934;33.430;2023-02-22T06:36:26;57361.14;;;-140.43;79.80
30714;BME280;17465;47.934;33.430;2023-02-22T06:38:57;57334.67;;;-140.43;79.19
30714;BME280;17465;47.934;33.430;2023-02-22T06:41:27;57381.27;;;-140.43;81.03
30714;BME280;17465;47.934;33.430;2023-02-22T06:43:58;57355.85;;;-140.43;80.69
30714;BME280;17465;47.934;33.430;2023-02-22T06:46:28;57327.25;;;-140.43;80.31
30714;BME280;17465;47.934;33.430;2023-02-22T06:48:59;57354.79;;;-140.43;80.54
30714;BME280;17465;47.934;33.430;2023-02-22T06:51:34;57372.79;;;-140.43;80.64
30714;BME280;17465;47.934;33.430;2023-02-22T06:54:04;57364.32;;;-140.43;78.32
30714;BME280;17465;47.934;33.430;2023-02-22T06:56:35;57378.09;;;-140.43;78.13
30714;BME280;17465;47.934;33.430;2023-02-22T06:59:07;57349.49;;;-140.43;77.03
30714;BME280;17465;47.934;33.430;2023-02-22T07:01:42;57353.73;;;-140.43;77.00
30714;BME280;17465;47.934;33.430;2023-02-22T07:04:12;57330.43;;;-140.43;75.78
30714;BME280;17465;47.934;33.430;2023-02-22T07:06:47;57357.96;;;-140.43;75.49
30714;BME280;17465;47.934;33.430;2023-02-22T07:09:21;57351.61;;;-140.43;74.71
30714;BME280;17465;47.934;33.430;2023-02-22T07:11:52;57318.78;;;-140.43;72.30
30714;BME280;17465;47.934;33.430;2023-02-22T07:14:23;57344.20;;;-140.43;72.04
30714;BME280;17465;47.934;33.430;2023-02-22T07:16:54;57366.44;;;-140.43;71.08
30714;BME280;17465;47.934;33.430;2023-02-22T07:19:30;57355.85;;;-140.43;69.79
30714;BME280;17465;47.934;33.430;2023-02-22T07:22:02;57338.90;;;-140.43;70.02
30714;BME280;17465;47.934;33.430;2023-02-22T07:24:32;57347.38;;;-140.43;69.43
30714;BME280;17465;47.934;33.430;2023-02-22T07:27:07;57343.14;;;-140.43;68.52
30714;BME280;17465;47.934;33.430;2023-02-22T07:32:26;57360.08;;;-140.43;68.11
30714;BME280;17465;47.934;33.430;2023-02-22T07:35:00;57359.03;;;-140.43;69.54
30714;BME280;17465;47.934;33.430;2023-02-22T07:37:30;57371.73;;;-140.43;67.87
30714;BME280;17465;47.934;33.430;2023-02-22T07:40:01;57347.38;;;-140.43;68.96
30714;BME280;17465;47.934;33.430;2023-02-22T07:45:28;57385.50;;;-140.43;70.42
30714;BME280;17465;47.934;33.430;2023-02-22T07:48:03;57357.96;;;-140.43;70.06
30714;BME280;17465;47.934;33.430;2023-02-22T07:50:40;57373.85;;;-140.43;70.50
30714;BME280;17465;47.934;33.430;2023-02-22T07:53:26;57386.56;;;-140.43;70.73
30714;BME280;17465;47.934;33.430;2023-02-22T07:56:07;57369.62;;;-140.43;68.62
30714;BME280;17465;47.934;33.430;2023-02-22T07:58:36;57385.50;;;-140.43;68.57
30714;BME280;17465;47.934;33.430;2023-02-22T08:01:09;57363.26;;;-140.43;68.98
30714;BME280;17465;47.934;33.430;2023-02-22T08:03:39;57387.62;;;-140.43;69.03
30714;BME280;17465;47.934;33.430;2023-02-22T08:06:10;57355.85;;;-140.43;68.36
30714;BME280;17465;47.934;33.430;2023-02-22T08:08:42;57355.85;;;-140.43;68.36
30714;BME280;17465;47.934;33.430;2023-02-22T08:11:14;57364.32;;;-140.43;70.19
30714;BME280;17465;47.934;33.430;2023-02-22T08:14:00;57373.85;;;-140.43;68.98
30714;BME280;17465;47.934;33.430;2023-02-22T08:16:32;57364.32;;;-140.43;67.99
30714;BME280;17465;47.934;33.430;2023-02-22T08:18:59;57374.91;;;-140.43;68.14
30714;BME280;17465;47.934;33.430;2023-02-22T08:21:30;57386.56;;;-140.43;69.33
30714;BME280;17465;47.934;33.430;2023-02-22T08:24:04;57383.38;;;-140.43;69.04
30714;BME280;17465;47.934;33.430;2023-02-22T08:26:46;57368.55;;;-140.43;69.59
30714;BME280;17465;47.934;33.430;2023-02-22T08:29:27;57377.03;;;-140.43;68.59
30714;BME280;17465;47.934;33.430;2023-02-22T08:32:00;57382.32;;;-140.43;68.02
30714;BME280;17465;47.934;33.430;2023-02-22T08:34:33;57382.32;;;-140.43;68.02
30714;BME280;17465;47.934;33.430;2023-02-22T08:37:05;57351.61;;;-140.43;69.86
30714;BME280;17465;47.934;33.430;2023-02-22T08:39:37;57363.26;;;-140.43;68.11
30714;BME280;17465;47.934;33.430;2023-02-22T08:42:18;57348.43;;;-140.43;66.92
30714;BME280;17465;47.934;33.430;2023-02-22T08:44:50;57362.20;;;-140.43;66.39
30714;BME280;17465;47.934;33.430;2023-02-22T08:47:21;57347.38;;;-140.43;66.76
30714;BME280;17465;47.934;33.430;2023-02-22T08:49:52;57363.26;;;-140.43;66.70
30714;BME280;17465;47.934;33.430;2023-02-22T08:52:26;57364.32;;;-140.43;67.43
30714;BME280;17465;47.934;33.430;2023-02-22T08:54:58;57378.09;;;-140.43;66.46
30714;BME280;17465;47.934;33.430;2023-02-22T08:57:37;57390.80;;;-140.43;64.69
30714;BME280;17465;47.934;33.430;2023-02-22T09:00:13;57349.49;;;-140.43;65.16
30714;BME280;17465;47.934;33.430;2023-02-22T09:02:54;57362.20;;;-140.43;67.17
30714;BME280;17465;47.934;33.430;2023-02-22T09:05:23;57362.20;;;-140.43;67.27
30714;BME280;17465;47.934;33.430;2023-02-22T09:07:54;57384.44;;;-140.43;68.60
30714;BME280;17465;47.934;33.430;2023-02-22T09:10:28;57398.21;;;-140.43;68.58
30714;BME280;17465;47.934;33.430;2023-02-22T09:13:00;57352.67;;;-140.43;68.87
30714;BME280;17465;47.934;33.430;2023-02-22T09:18:26;57380.21;;;-140.43;70.32
30714;BME280;17465;47.934;33.430;2023-02-22T09:20:59;57377.03;;;-140.43;70.54
30714;BME280;17465;47.934;33.430;2023-02-22T09:23:30;57377.03;;;-140.43;70.54
30714;BME280;17465;47.934;33.430;2023-02-22T09:26:02;57369.62;;;-140.43;71.04
30714;BME280;17465;47.934;33.430;2023-02-22T09:28:33;57380.21;;;-140.43;70.25
30714;BME280;17465;47.934;33.430;2023-02-22T09:31:07;57380.21;;;-140.43;70.25
30714;BME280;17465;47.934;33.430;2023-02-22T09:33:45;57375.97;;;-140.43;72.14
30714;BME280;17465;47.934;33.430;2023-02-22T09:36:18;57375.97;;;-140.43;72.14
30714;BME280;17465;47.934;33.430;2023-02-22T09:38:51;57351.61;;;-140.43;72.69
30714;BME280;17465;47.934;33.430;2023-02-22T09:41:34;57383.38;;;-140.43;73.00
30714;BME280;17465;47.934;33.430;2023-02-22T09:44:13;57384.44;;;-140.43;71.56
30714;BME280;17465;47.934;33.430;2023-02-22T09:46:43;57359.03;;;-140.43;72.77
30714;BME280;17465;47.934;33.430;2023-02-22T09:49:28;57378.09;;;-140.43;73.62
30714;BME280;17465;47.934;33.430;2023-02-22T09:52:14;57369.62;;;-140.43;73.36
30714;BME280;17465;47.934;33.430;2023-02-22T09:54:51;57350.55;;;-140.43;72.81
30714;BME280;17465;47.934;33.430;2023-02-22T09:57:25;57374.91;;;-140.43;73.21
30714;BME280;17465;47.934;33.430;2023-02-22T10:00:18;57361.14;;;-140.43;74.23
30714;BME280;17465;47.934;33.430;2023-02-22T10:05:57;57359.03;;;-140.43;74.58
30714;BME280;17465;47.934;33.430;2023-02-22T10:08:29;57375.97;;;-140.43;74.96
30714;BME280;17465;47.934;33.430;2023-02-22T10:11:30;57384.44;;;-140.43;76.41
30714;BME280;17465;47.934;33.430;2023-02-22T10:25:35;57395.03;;;-140.43;75.87
30714;BME280;17465;47.934;33.430;2023-02-22T10:28:33;57392.91;;;-140.43;76.09
30714;BME280;17465;47.934;33.430;2023-02-22T10:31:06;57360.08;;;-140.43;74.88
30714;BME280;17465;47.934;33.430;2023-02-22T10:33:47;57401.39;;;-140.43;74.03
30714;BME280;17465;47.934;33.430;2023-02-22T10:36:23;57372.79;;;-140.43;73.03
30714;BME280;17465;47.934;33.430;2023-02-22T10:39:12;57372.79;;;-140.43;73.03
30714;BME280;17465;47.934;33.430;2023-02-22T10:41:34;57404.57;;;-140.43;73.72
30714;BME280;17465;47.934;33.430;2023-02-22T10:44:06;57368.55;;;-140.43;72.88
30714;BME280;17465;47.934;33.430;2023-02-22T10:46:39;57350.55;;;-140.43;73.38
30714;BME280;17465;47.934;33.430;2023-02-22T10:49:14;57397.15;;;-140.43;73.48
30714;BME280;17465;47.934;33.430;2023-02-22T10:51:56;57397.15;;;-140.43;73.48
30714;BME280;17465;47.934;33.430;2023-02-22T10:57:41;57377.03;;;-140.43;71.20
30714;BME280;17465;47.934;33.430;2023-02-22T11:03:01;57370.68;;;-140.43;70.53
30714;BME280;17465;47.934;33.430;2023-02-22T11:05:37;57397.15;;;-140.43;68.64
30714;BME280;17465;47.934;33.430;2023-02-22T11:08:29;57397.15;;;-140.43;68.64
30714;BME280;17465;47.934;33.430;2023-02-22T11:11:24;57383.38;;;-140.43;69.49
30714;BME280;17465;47.934;33.430;2023-02-22T11:13:55;57383.38;;;-140.43;69.49
30714;BME280;17465;47.934;33.430;2023-02-22T11:16:34;57384.44;;;-140.43;66.16
30714;BME280;17465;47.934;33.430;2023-02-22T11:19:29;57359.03;;;-140.43;65.01
30714;BME280;17465;47.934;33.430;2023-02-22T11:24:52;57364.32;;;-140.43;63.29
30714;BME280;17465;47.934;33.430;2023-02-22T11:27:37;57371.73;;;-140.43;62.30
30714;BME280;17465;47.934;33.430;2023-02-22T11:30:13;57342.08;;;-140.43;63.45
30714;BME280;17465;47.934;33.430;2023-02-22T11:35:55;57377.03;;;-140.43;64.13
30714;BME280;17465;47.934;33.430;2023-02-22T11:38:31;57380.21;;;-140.43;65.51
30714;BME280;17465;47.934;33.430;2023-02-22T11:41:20;57401.39;;;-140.43;63.72
30714;BME280;17465;47.934;33.430;2023-02-22T11:46:43;57365.38;;;-140.43;63.05
30714;BME280;17465;47.934;33.430;2023-02-22T11:49:20;57365.38;;;-140.43;63.05
30714;BME280;17465;47.934;33.430;2023-02-22T11:57:43;57367.50;;;-140.43;59.26
30714;BME280;17465;47.934;33.430;2023-02-22T12:11:49;57369.62;;;-140.43;52.26
30714;BME280;17465;47.934;33.430;2023-02-22T12:20:37;57346.32;;;-140.43;50.34
30714;BME280;17465;47.934;33.430;2023-02-22T12:23:31;57346.32;;;-140.43;50.34
30714;BME280;17465;47.934;33.430;2023-02-22T12:26:10;57339.96;;;-140.43;47.10
30714;BME280;17465;47.934;33.430;2023-02-22T12:28:44;57319.84;;;-140.43;43.91
30714;BME280;17465;47.934;33.430;2023-02-22T12:31:28;57332.55;;;-140.43;43.13
30714;BME280;17465;47.934;33.430;2023-02-22T12:34:08;57332.55;;;-140.43;43.13
30714;BME280;17465;47.934;33.430;2023-02-22T12:36:49;57344.20;;;-140.43;45.08
30714;BME280;17465;47.934;33.430;2023-02-22T12:39:47;57360.08;;;-140.43;49.00
30714;BME280;17465;47.934;33.430;2023-02-22T12:42:25;57371.73;;;-140.43;47.64
30714;BME280;17465;47.934;33.430;2023-02-22T12:45:05;57382.32;;;-140.43;48.62
30714;BME280;17465;47.934;33.430;2023-02-22T12:47:36;57377.03;;;-140.43;48.91
30714;BME280;17465;47.934;33.430;2023-02-22T12:50:16;57383.38;;;-140.43;49.86
30714;BME280;17465;47.934;33.430;2023-02-22T12:55:34;57362.20;;;-140.43;48.96
30714;BME280;17465;47.934;33.430;2023-02-22T13:01:18;57370.68;;;-140.43;48.26
30714;BME280;17465;47.934;33.430;2023-02-22T13:09:46;57373.85;;;-140.43;50.28
30714;BME280;17465;47.934;33.430;2023-02-22T13:12:21;57386.56;;;-140.43;49.61
30714;BME280;17465;47.934;33.430;2023-02-22T13:18:08;57395.03;;;-140.43;50.22
30714;BME280;17465;47.934;33.430;2023-02-22T13:23:52;57354.79;;;-140.43;50.46
30714;BME280;17465;47.934;33.430;2023-02-22T13:26:24;57399.27;;;-140.43;51.78
30714;BME280;17465;47.934;33.430;2023-02-22T13:28:57;57420.45;;;-140.43;50.58
30714;BME280;17465;47.934;33.430;2023-02-22T13:31:49;57420.45;;;-140.43;50.58
30714;BME280;17465;47.934;33.430;2023-02-22T13:34:38;57392.91;;;-140.43;51.69
30714;BME280;17465;47.934;33.430;2023-02-22T13:40:54;57393.98;;;-140.43;51.22
30714;BME280;17465;47.934;33.430;2023-02-22T13:52:25;57388.68;;;-140.43;52.35
30714;BME280;17465;47.934;33.430;2023-02-22T13:55:01;57369.62;;;-140.43;53.00
30714;BME280;17465;47.934;33.430;2023-02-22T13:57:41;57369.62;;;-140.43;53.00
30714;BME280;17465;47.934;33.430;2023-02-22T14:00:19;57407.74;;;-140.43;53.46
30714;BME280;17465;47.934;33.430;2023-02-22T14:08:49;57395.03;;;-140.43;50.53
30714;BME280;17465;47.934;33.430;2023-02-22T14:11:38;57401.39;;;-140.43;51.77
30714;BME280;17465;47.934;33.430;2023-02-22T14:16:28;57399.27;;;-140.43;53.38
30714;BME280;17465;47.934;33.430;2023-02-22T14:19:15;57416.21;;;-140.43;54.17
30714;BME280;17465;47.934;33.430;2023-02-22T14:24:52;57425.75;;;-140.43;54.40
30714;BME280;17465;47.934;33.430;2023-02-22T14:27:49;57424.69;;;-140.43;53.52
30714;BME280;17465;47.934;33.430;2023-02-22T14:30:27;57373.85;;;-140.43;54.14
30714;BME280;17465;47.934;33.430;2023-02-22T14:32:59;57379.15;;;-140.43;54.78
30714;BME280;17465;47.934;33.430;2023-02-22T14:38:28;57404.57;;;-140.43;54.22
30714;BME280;17465;47.934;33.430;2023-02-22T14:41:01;57409.86;;;-140.43;54.38
30714;BME280;17465;47.934;33.430;2023-02-22T14:43:34;57393.98;;;-140.43;55.08
30714;BME280;17465;47.934;33.430;2023-02-22T14:46:07;57393.98;;;-140.43;55.08
30714;BME280;17465;47.934;33.430;2023-02-22T14:48:40;57377.03;;;-140.43;55.98
30714;BME280;17465;47.934;33.430;2023-02-22T14:51:28;57399.27;;;-140.43;56.99
30714;BME280;17465;47.934;33.430;2023-02-22T14:54:13;57399.27;;;-140.43;56.99
30714;BME280;17465;47.934;33.430;2023-02-22T14:56:49;57392.91;;;-140.43;58.18
30714;BME280;17465;47.934;33.430;2023-02-22T14:59:23;57396.09;;;-140.43;58.71
30714;BME280;17465;47.934;33.430;2023-02-22T15:02:12;57389.74;;;-140.43;58.68
30714;BME280;17465;47.934;33.430;2023-02-22T15:04:53;57391.86;;;-140.43;59.47
30714;BME280;17465;47.934;33.430;2023-02-22T15:07:31;57391.86;;;-140.43;59.47
30714;BME280;17465;47.934;33.430;2023-02-22T15:12:56;57379.15;;;-140.43;60.05
30714;BME280;17465;47.934;33.430;2023-02-22T15:15:51;57386.56;;;-140.43;60.67
30714;BME280;17465;47.934;33.430;2023-02-22T15:18:23;57386.56;;;-140.43;60.67
30714;BME280;17465;47.934;33.430;2023-02-22T15:21:04;57396.09;;;-140.43;59.18
30714;BME280;17465;47.934;33.430;2023-02-22T15:24:03;57397.15;;;-140.43;59.32
30714;BME280;17465;47.934;33.430;2023-02-22T15:26:47;57390.80;;;-140.43;60.31